sensor_id;sensor_type;location;lat;lon;timestamp;temperature;humidity
28654;DHT22;24320;56.980;24.336;2023-04-25T00:00:16;11.40;99.90
28654;DHT22;24320;56.980;24.336;2023-04-25T00:02:43;11.50;99.90
28654;DHT22;24320;56.980;24.336;2023-04-25T00:05:10;11.50;99.90
28654;DHT22;24320;56.980;24.336;2023-04-25T00:07:38;11.40;99.90
28654;DHT22;24320;56.980;24.336;2023-04-25T00:10:06;11.30;99.90
28654;DHT22;24320;56.980;24.336;2023-04-25T00:12:33;11.20;99.90
28654;DHT22;24320;56.980;24.336;2023-04-25T00:15:01;11.10;99.90
28654;DHT22;24320;56.980;24.336;2023-04-25T00:17:28;10.90;99.90
28654;DHT22;24320;56.980;24.336;2023-04-25T00:19:56;10.80;99.90
28654;DHT22;24320;56.980;24.336;2023-04-25T00:22:24;10.80;99.90
28654;DHT22;24320;56.980;24.336;2023-04-25T00:24:52;10.70;99.90
28654;DHT22;24320;56.980;24.336;2023-04-25T00:27:20;10.70;99.90
28654;DHT22;24320;56.980;24.336;2023-04-25T00:29:47;10.50;99.90
28654;DHT22;24320;56.980;24.336;2023-04-25T00:32:14;10.40;99.90
28654;DHT22;24320;56.980;24.336;2023-04-25T00:34:41;10.30;99.90
28654;DHT22;24320;56.980;24.336;2023-04-25T00:37:08;10.30;99.90
28654;DHT22;24320;56.980;24.336;2023-04-25T00:39:35;10.20;99.90
28654;DHT22;24320;56.980;24.336;2023-04-25T00:42:02;10.10;99.90
28654;DHT22;24320;56.980;24.336;2023-04-25T00:44:30;10.00;99.90
28654;DHT22;24320;56.980;24.336;2023-04-25T00:47:00;9.90;99.90
28654;DHT22;24320;56.980;24.336;2023-04-25T00:49:28;10.00;99.90
28654;DHT22;24320;56.980;24.336;2023-04-25T00:51:56;10.10;99.90
28654;DHT22;24320;56.980;24.336;2023-04-25T00:54:23;10.10;99.90
28654;DHT22;24320;56.980;24.336;2023-04-25T00:56:51;10.10;99.90
28654;DHT22;24320;56.980;24.336;2023-04-25T00:59:19;10.20;99.90
28654;DHT22;24320;56.980;24.336;2023-04-25T01:01:47;10.30;99.90
28654;DHT22;24320;56.980;24.336;2023-04-25T01:04:14;10.40;99.90
28654;DHT22;24320;56.980;24.336;2023-04-25T01:06:41;10.40;99.90
28654;DHT22;24320;56.980;24.336;2023-04-25T01:09:08;10.40;99.90
28654;DHT22;24320;56.980;24.336;2023-04-25T01:11:36;10.40;99.90
28654;DHT22;24320;56.980;24.336;2023-04-25T01:14:03;10.40;99.90
28654;DHT22;24320;56.980;24.336;2023-04-25T01:16:30;10.40;99.90
28654;DHT22;24320;56.980;24.336;2023-04-25T01:18:58;10.40;99.90
28654;DHT22;24320;56.980;24.336;2023-04-25T01:21:26;10.30;99.90
28654;DHT22;24320;56.980;24.336;2023-04-25T01:23:54;10.30;99.90
28654;DHT22;24320;56.980;24.336;2023-04-25T01:26:22;10.20;99.90
28654;DHT22;24320;56.980;24.336;2023-04-25T01:28:50;10.00;99.90
28654;DHT22;24320;56.980;24.336;2023-04-25T01:31:18;9.90;99.90
28654;DHT22;24320;56.980;24.336;2023-04-25T01:33:47;9.90;99.90
28654;DHT22;24320;56.980;24.336;2023-04-25T01:36:14;9.80;99.90
28654;DHT22;24320;56.980;24.336;2023-04-25T01:38:42;9.90;99.90
28654;DHT22;24320;56.980;24.336;2023-04-25T01:41:10;9.90;99.90
28654;DHT22;24320;56.980;24.336;2023-04-25T01:43:38;9.90;99.90
28654;DHT22;24320;56.980;24.336;2023-04-25T01:46:05;9.90;99.90
28654;DHT22;24320;56.980;24.336;2023-04-25T01:48:32;10.00;99.90
28654;DHT22;24320;56.980;24.336;2023-04-25T01:50:59;9.90;99.90
28654;DHT22;24320;56.980;24.336;2023-04-25T01:53:26;9.90;99.90
28654;DHT22;24320;56.980;24.336;2023-04-25T01:55:54;9.80;99.90
28654;DHT22;24320;56.980;24.336;2023-04-25T01:58:21;9.70;99.90
28654;DHT22;24320;56.980;24.336;2023-04-25T02:00:48;9.70;99.90
28654;DHT22;24320;56.980;24.336;2023-04-25T02:03:15;9.70;99.90
28654;DHT22;24320;56.980;24.336;2023-04-25T02:05:42;9.70;99.90
28654;DHT22;24320;56.980;24.336;2023-04-25T02:08:09;9.80;99.90
28654;DHT22;24320;56.980;24.336;2023-04-25T02:10:36;9.80;99.90
28654;DHT22;24320;56.980;24.336;2023-04-25T02:13:04;9.70;99.90
28654;DHT22;24320;56.980;24.336;2023-04-25T02:15:32;9.60;99.90
28654;DHT22;24320;56.980;24.336;2023-04-25T02:17:59;9.60;99.90
28654;DHT22;24320;56.980;24.336;2023-04-25T02:20:28;9.50;99.90
28654;DHT22;24320;56.980;24.336;2023-04-25T02:22:55;9.50;99.90
28654;DHT22;24320;56.980;24.336;2023-04-25T02:25:23;9.60;99.90
28654;DHT22;24320;56.980;24.336;2023-04-25T02:27:50;9.70;99.90
28654;DHT22;24320;56.980;24.336;2023-04-25T02:30:18;9.60;99.90
28654;DHT22;24320;56.980;24.336;2023-04-25T02:32:45;9.70;99.90
28654;DHT22;24320;56.980;24.336;2023-04-25T02:35:12;9.60;99.90
28654;DHT22;24320;56.980;24.336;2023-04-25T02:37:40;9.60;99.90
28654;DHT22;24320;56.980;24.336;2023-04-25T02:40:08;9.70;99.90
28654;DHT22;24320;56.980;24.336;2023-04-25T02:42:35;9.70;99.90
28654;DHT22;24320;56.980;24.336;2023-04-25T02:45:03;9.70;99.90
28654;DHT22;24320;56.980;24.336;2023-04-25T02:47:30;9.70;99.90
28654;DHT22;24320;56.980;24.336;2023-04-25T02:49:57;9.70;99.90
28654;DHT22;24320;56.980;24.336;2023-04-25T02:52:25;9.70;99.90
28654;DHT22;24320;56.980;24.336;2023-04-25T02:54:52;9.70;99.90
28654;DHT22;24320;56.980;24.336;2023-04-25T02:57:19;9.70;99.90
28654;DHT22;24320;56.980;24.336;2023-04-25T02:59:46;9.80;99.90
28654;DHT22;24320;56.980;24.336;2023-04-25T03:02:13;9.80;99.90
28654;DHT22;24320;56.980;24.336;2023-04-25T03:04:40;9.80;99.90
28654;DHT22;24320;56.980;24.336;2023-04-25T03:07:08;9.90;99.90
28654;DHT22;24320;56.980;24.336;2023-04-25T03:09:35;10.00;99.90
28654;DHT22;24320;56.980;24.336;2023-04-25T03:12:02;10.10;99.90
28654;DHT22;24320;56.980;24.336;2023-04-25T03:14:29;10.30;99.90
28654;DHT22;24320;56.980;24.336;2023-04-25T03:16:56;10.40;99.90
28654;DHT22;24320;56.980;24.336;2023-04-25T03:19:23;10.50;99.90
28654;DHT22;24320;56.980;24.336;2023-04-25T03:21:50;10.70;99.90
28654;DHT22;24320;56.980;24.336;2023-04-25T03:24:17;10.80;99.90
28654;DHT22;24320;56.980;24.336;2023-04-25T03:26:44;10.90;99.90
28654;DHT22;24320;56.980;24.336;2023-04-25T03:29:12;11.10;99.90
28654;DHT22;24320;56.980;24.336;2023-04-25T03:31:39;11.10;99.90
28654;DHT22;24320;56.980;24.336;2023-04-25T03:34:06;11.20;99.90
28654;DHT22;24320;56.980;24.336;2023-04-25T03:36:33;11.30;99.90
28654;DHT22;24320;56.980;24.336;2023-04-25T03:39:00;11.50;99.90
28654;DHT22;24320;56.980;24.336;2023-04-25T03:41:27;11.70;99.90
28654;DHT22;24320;56.980;24.336;2023-04-25T03:43:54;11.90;99.90
28654;DHT22;24320;56.980;24.336;2023-04-25T03:46:21;12.10;99.90
28654;DHT22;24320;56.980;24.336;2023-04-25T03:48:49;12.50;99.90
28654;DHT22;24320;56.980;24.336;2023-04-25T03:51:16;12.70;99.90
28654;DHT22;24320;56.980;24.336;2023-04-25T03:53:52;12.90;99.90
28654;DHT22;24320;56.980;24.336;2023-04-25T03:56:19;13.00;99.90
28654;DHT22;24320;56.980;24.336;2023-04-25T03:58:47;13.10;99.90
28654;DHT22;24320;56.980;24.336;2023-04-25T04:01:15;13.10;99.90
28654;DHT22;24320;56.980;24.336;2023-04-25T04:03:41;13.10;99.90
28654;DHT22;24320;56.980;24.336;2023-04-25T04:06:09;13.40;99.90
28654;DHT22;24320;56.980;24.336;2023-04-25T04:08:37;13.60;99.90
28654;DHT22;24320;56.980;24.336;2023-04-25T04:11:04;13.60;99.90
28654;DHT22;24320;56.980;24.336;2023-04-25T04:13:31;13.60;99.90
28654;DHT22;24320;56.980;24.336;2023-04-25T04:15:58;13.50;99.90
28654;DHT22;24320;56.980;24.336;2023-04-25T04:18:26;13.40;99.90
28654;DHT22;24320;56.980;24.336;2023-04-25T04:20:53;13.30;99.90
28654;DHT22;24320;56.980;24.336;2023-04-25T04:23:20;13.20;99.90
28654;DHT22;24320;56.980;24.336;2023-04-25T04:25:47;13.10;99.90
28654;DHT22;24320;56.980;24.336;2023-04-25T04:28:15;13.10;99.90
28654;DHT22;24320;56.980;24.336;2023-04-25T04:30:49;13.10;99.90
28654;DHT22;24320;56.980;24.336;2023-04-25T04:33:18;13.10;99.90
28654;DHT22;24320;56.980;24.336;2023-04-25T04:35:51;13.10;99.90
28654;DHT22;24320;56.980;24.336;2023-04-25T04:38:20;13.20;99.90
28654;DHT22;24320;56.980;24.336;2023-04-25T04:40:48;13.20;99.90
28654;DHT22;24320;56.980;24.336;2023-04-25T04:43:15;13.20;99.90
28654;DHT22;24320;56.980;24.336;2023-04-25T04:45:43;13.30;99.90
28654;DHT22;24320;56.980;24.336;2023-04-25T04:48:11;13.40;99.90
28654;DHT22;24320;56.980;24.336;2023-04-25T04:50:42;13.40;99.90
28654;DHT22;24320;56.980;24.336;2023-04-25T04:53:11;13.50;99.90
28654;DHT22;24320;56.980;24.336;2023-04-25T04:55:39;13.50;99.90
28654;DHT22;24320;56.980;24.336;2023-04-25T04:58:08;13.60;99.90
28654;DHT22;24320;56.980;24.336;2023-04-25T05:00:35;13.60;99.90
28654;DHT22;24320;56.980;24.336;2023-04-25T05:03:02;13.60;99.90
28654;DHT22;24320;56.980;24.336;2023-04-25T05:05:29;13.70;99.90
28654;DHT22;24320;56.980;24.336;2023-04-25T05:07:56;13.70;99.90
28654;DHT22;24320;56.980;24.336;2023-04-25T05:10:23;13.80;99.90
28654;DHT22;24320;56.980;24.336;2023-04-25T05:12:51;13.80;99.90
28654;DHT22;24320;56.980;24.336;2023-04-25T05:15:18;13.80;99.90
28654;DHT22;24320;56.980;24.336;2023-04-25T05:17:45;13.80;99.90
28654;DHT22;24320;56.980;24.336;2023-04-25T05:20:12;13.90;99.90
28654;DHT22;24320;56.980;24.336;2023-04-25T05:22:40;13.90;99.90
28654;DHT22;24320;56.980;24.336;2023-04-25T05:25:09;14.00;99.90
28654;DHT22;24320;56.980;24.336;2023-04-25T05:27:36;14.20;99.90
28654;DHT22;24320;56.980;24.336;2023-04-25T05:30:04;14.20;99.90
28654;DHT22;24320;56.980;24.336;2023-04-25T05:32:32;14.30;99.90
28654;DHT22;24320;56.980;24.336;2023-04-25T05:34:59;14.50;99.90
28654;DHT22;24320;56.980;24.336;2023-04-25T05:37:26;14.60;99.90
28654;DHT22;24320;56.980;24.336;2023-04-25T05:39:53;14.80;99.80
28654;DHT22;24320;56.980;24.336;2023-04-25T05:42:20;14.90;99.90
28654;DHT22;24320;56.980;24.336;2023-04-25T05:44:47;15.00;99.60
28654;DHT22;24320;56.980;24.336;2023-04-25T05:47:14;15.10;99.90
28654;DHT22;24320;56.980;24.336;2023-04-25T05:49:41;15.20;99.20
28654;DHT22;24320;56.980;24.336;2023-04-25T05:52:08;15.40;98.10
28654;DHT22;24320;56.980;24.336;2023-04-25T05:54:35;15.50;98.40
28654;DHT22;24320;56.980;24.336;2023-04-25T05:57:02;15.70;99.00
28654;DHT22;24320;56.980;24.336;2023-04-25T05:59:29;15.80;97.40
28654;DHT22;24320;56.980;24.336;2023-04-25T06:01:56;15.90;98.60
28654;DHT22;24320;56.980;24.336;2023-04-25T06:04:23;16.00;98.10
28654;DHT22;24320;56.980;24.336;2023-04-25T06:06:51;16.30;98.20
28654;DHT22;24320;56.980;24.336;2023-04-25T06:09:18;17.10;98.80
28654;DHT22;24320;56.980;24.336;2023-04-25T06:11:45;18.20;95.70
28654;DHT22;24320;56.980;24.336;2023-04-25T06:14:12;19.20;92.80
28654;DHT22;24320;56.980;24.336;2023-04-25T06:16:39;19.90;90.30
28654;DHT22;24320;56.980;24.336;2023-04-25T06:19:06;19.80;90.70
28654;DHT22;24320;56.980;24.336;2023-04-25T06:21:33;19.90;88.60
28654;DHT22;24320;56.980;24.336;2023-04-25T06:24:00;20.10;88.70
28654;DHT22;24320;56.980;24.336;2023-04-25T06:26:27;20.20;90.20
28654;DHT22;24320;56.980;24.336;2023-04-25T06:28:54;20.30;83.30
28654;DHT22;24320;56.980;24.336;2023-04-25T06:31:21;20.40;87.60
28654;DHT22;24320;56.980;24.336;2023-04-25T06:33:48;20.60;85.20
28654;DHT22;24320;56.980;24.336;2023-04-25T06:36:17;20.90;82.80
28654;DHT22;24320;56.980;24.336;2023-04-25T06:38:44;21.30;86.90
28654;DHT22;24320;56.980;24.336;2023-04-25T06:41:14;21.40;78.40
28654;DHT22;24320;56.980;24.336;2023-04-25T06:43:41;21.40;79.70
28654;DHT22;24320;56.980;24.336;2023-04-25T06:46:08;21.10;78.20
28654;DHT22;24320;56.980;24.336;2023-04-25T06:48:38;21.10;78.70
28654;DHT22;24320;56.980;24.336;2023-04-25T06:51:05;21.20;80.40
28654;DHT22;24320;56.980;24.336;2023-04-25T06:53:32;21.60;77.20
28654;DHT22;24320;56.980;24.336;2023-04-25T06:55:59;21.70;78.20
28654;DHT22;24320;56.980;24.336;2023-04-25T07:01:06;22.50;77.90
28654;DHT22;24320;56.980;24.336;2023-04-25T07:03:33;22.80;76.30
28654;DHT22;24320;56.980;24.336;2023-04-25T07:06:01;23.20;73.00
28654;DHT22;24320;56.980;24.336;2023-04-25T07:08:29;23.50;71.40
28654;DHT22;24320;56.980;24.336;2023-04-25T07:10:58;23.80;73.40
28654;DHT22;24320;56.980;24.336;2023-04-25T07:13:25;23.80;68.50
28654;DHT22;24320;56.980;24.336;2023-04-25T07:15:53;24.20;68.30
28654;DHT22;24320;56.980;24.336;2023-04-25T07:18:23;24.20;64.60
28654;DHT22;24320;56.980;24.336;2023-04-25T07:20:50;23.90;65.80
28654;DHT22;24320;56.980;24.336;2023-04-25T07:23:19;24.00;66.10
28654;DHT22;24320;56.980;24.336;2023-04-25T07:25:46;24.30;64.70
28654;DHT22;24320;56.980;24.336;2023-04-25T07:28:14;24.40;65.80
28654;DHT22;24320;56.980;24.336;2023-04-25T07:30:45;24.40;66.60
28654;DHT22;24320;56.980;24.336;2023-04-25T07:33:12;24.50;66.00
28654;DHT22;24320;56.980;24.336;2023-04-25T07:35:39;24.40;63.80
28654;DHT22;24320;56.980;24.336;2023-04-25T07:38:09;24.40;60.60
28654;DHT22;24320;56.980;24.336;2023-04-25T07:40:37;24.20;58.90
28654;DHT22;24320;56.980;24.336;2023-04-25T07:43:05;23.80;60.20
28654;DHT22;24320;56.980;24.336;2023-04-25T07:45:33;23.60;62.40
28654;DHT22;24320;56.980;24.336;2023-04-25T07:48:03;23.60;64.50
28654;DHT22;24320;56.980;24.336;2023-04-25T07:50:31;23.70;62.30
28654;DHT22;24320;56.980;24.336;2023-04-25T07:52:58;23.60;58.40
28654;DHT22;24320;56.980;24.336;2023-04-25T07:55:25;23.60;60.10
28654;DHT22;24320;56.980;24.336;2023-04-25T07:57:54;23.60;60.50
28654;DHT22;24320;56.980;24.336;2023-04-25T08:00:21;23.50;63.40
28654;DHT22;24320;56.980;24.336;2023-04-25T08:02:48;23.40;64.30
28654;DHT22;24320;56.980;24.336;2023-04-25T08:05:18;23.20;63.00
28654;DHT22;24320;56.980;24.336;2023-04-25T08:07:48;23.10;63.30
28654;DHT22;24320;56.980;24.336;2023-04-25T08:10:15;23.10;60.80
28654;DHT22;24320;56.980;24.336;2023-04-25T08:12:42;23.00;62.10
28654;DHT22;24320;56.980;24.336;2023-04-25T08:15:09;22.90;61.70
28654;DHT22;24320;56.980;24.336;2023-04-25T08:17:37;22.80;63.20
28654;DHT22;24320;56.980;24.336;2023-04-25T08:20:04;23.00;63.60
28654;DHT22;24320;56.980;24.336;2023-04-25T08:25:07;22.60;62.50
28654;DHT22;24320;56.980;24.336;2023-04-25T08:27:35;22.40;60.10
28654;DHT22;24320;56.980;24.336;2023-04-25T08:30:03;22.20;59.70
28654;DHT22;24320;56.980;24.336;2023-04-25T08:32:32;22.00;59.10
28654;DHT22;24320;56.980;24.336;2023-04-25T08:35:00;21.80;60.00
28654;DHT22;24320;56.980;24.336;2023-04-25T08:37:29;21.50;58.40
28654;DHT22;24320;56.980;24.336;2023-04-25T08:39:56;21.10;62.40
28654;DHT22;24320;56.980;24.336;2023-04-25T08:42:23;21.10;62.00
28654;DHT22;24320;56.980;24.336;2023-04-25T08:44:53;21.20;60.50
28654;DHT22;24320;56.980;24.336;2023-04-25T08:47:22;21.30;60.60
28654;DHT22;24320;56.980;24.336;2023-04-25T08:49:53;21.30;61.50
28654;DHT22;24320;56.980;24.336;2023-04-25T08:52:24;21.20;59.30
28654;DHT22;24320;56.980;24.336;2023-04-25T08:54:53;21.20;61.20
28654;DHT22;24320;56.980;24.336;2023-04-25T08:57:21;21.20;60.40
28654;DHT22;24320;56.980;24.336;2023-04-25T08:59:49;21.20;60.40
28654;DHT22;24320;56.980;24.336;2023-04-25T09:02:17;21.20;59.70
28654;DHT22;24320;56.980;24.336;2023-04-25T09:04:46;21.30;64.00
28654;DHT22;24320;56.980;24.336;2023-04-25T09:07:14;21.50;59.00
28654;DHT22;24320;56.980;24.336;2023-04-25T09:09:45;21.50;61.90
28654;DHT22;24320;56.980;24.336;2023-04-25T09:12:12;21.60;59.80
28654;DHT22;24320;56.980;24.336;2023-04-25T09:14:39;21.60;60.60
28654;DHT22;24320;56.980;24.336;2023-04-25T09:17:07;21.70;60.30
28654;DHT22;24320;56.980;24.336;2023-04-25T09:19:36;21.70;60.30
28654;DHT22;24320;56.980;24.336;2023-04-25T09:22:08;21.80;58.80
28654;DHT22;24320;56.980;24.336;2023-04-25T09:24:41;21.90;58.20
28654;DHT22;24320;56.980;24.336;2023-04-25T09:27:12;21.90;62.10
28654;DHT22;24320;56.980;24.336;2023-04-25T09:29:40;22.00;59.30
28654;DHT22;24320;56.980;24.336;2023-04-25T09:32:20;22.00;58.40
28654;DHT22;24320;56.980;24.336;2023-04-25T09:34:51;21.80;60.70
28654;DHT22;24320;56.980;24.336;2023-04-25T09:37:27;21.70;57.70
28654;DHT22;24320;56.980;24.336;2023-04-25T09:39:56;21.30;59.40
28654;DHT22;24320;56.980;24.336;2023-04-25T09:42:24;21.10;61.00
28654;DHT22;24320;56.980;24.336;2023-04-25T09:44:53;21.00;61.70
28654;DHT22;24320;56.980;24.336;2023-04-25T09:47:23;20.80;61.40
28654;DHT22;24320;56.980;24.336;2023-04-25T09:49:51;20.70;60.40
28654;DHT22;24320;56.980;24.336;2023-04-25T09:52:20;20.70;64.60
28654;DHT22;24320;56.980;24.336;2023-04-25T09:54:52;20.70;61.60
28654;DHT22;24320;56.980;24.336;2023-04-25T09:57:21;20.60;61.50
28654;DHT22;24320;56.980;24.336;2023-04-25T09:59:53;20.50;64.00
28654;DHT22;24320;56.980;24.336;2023-04-25T10:02:25;20.40;65.20
28654;DHT22;24320;56.980;24.336;2023-04-25T10:04:54;20.40;63.40
28654;DHT22;24320;56.980;24.336;2023-04-25T10:07:24;20.50;64.10
28654;DHT22;24320;56.980;24.336;2023-04-25T10:10:00;20.60;63.60
28654;DHT22;24320;56.980;24.336;2023-04-25T10:12:32;20.90;65.10
28654;DHT22;24320;56.980;24.336;2023-04-25T10:15:06;21.40;61.60
28654;DHT22;24320;56.980;24.336;2023-04-25T10:17:49;22.00;62.90
28654;DHT22;24320;56.980;24.336;2023-04-25T10:20:17;22.40;57.30
28654;DHT22;24320;56.980;24.336;2023-04-25T10:22:46;22.40;57.40
28654;DHT22;24320;56.980;24.336;2023-04-25T10:25:14;22.10;55.80
28654;DHT22;24320;56.980;24.336;2023-04-25T10:27:42;21.80;59.30
28654;DHT22;24320;56.980;24.336;2023-04-25T10:30:13;21.70;57.80
28654;DHT22;24320;56.980;24.336;2023-04-25T10:32:42;21.60;58.90
28654;DHT22;24320;56.980;24.336;2023-04-25T10:35:14;21.40;58.20
28654;DHT22;24320;56.980;24.336;2023-04-25T10:38:05;21.40;59.50
28654;DHT22;24320;56.980;24.336;2023-04-25T10:40:33;21.70;60.20
28654;DHT22;24320;56.980;24.336;2023-04-25T10:46:00;21.70;56.00
28654;DHT22;24320;56.980;24.336;2023-04-25T10:51:08;21.20;56.50
28654;DHT22;24320;56.980;24.336;2023-04-25T10:53:35;21.00;58.60
28654;DHT22;24320;56.980;24.336;2023-04-25T10:56:18;21.10;62.70
28654;DHT22;24320;56.980;24.336;2023-04-25T10:58:46;21.30;56.70
28654;DHT22;24320;56.980;24.336;2023-04-25T11:01:20;21.20;57.30
28654;DHT22;24320;56.980;24.336;2023-04-25T11:03:48;21.10;59.00
28654;DHT22;24320;56.980;24.336;2023-04-25T11:06:22;21.00;58.30
28654;DHT22;24320;56.980;24.336;2023-04-25T11:08:50;20.90;59.10
28654;DHT22;24320;56.980;24.336;2023-04-25T11:11:18;20.80;58.30
28654;DHT22;24320;56.980;24.336;2023-04-25T11:13:51;20.70;57.40
28654;DHT22;24320;56.980;24.336;2023-04-25T11:16:18;20.80;59.50
28654;DHT22;24320;56.980;24.336;2023-04-25T11:19:05;20.90;61.00
28654;DHT22;24320;56.980;24.336;2023-04-25T11:21:32;20.90;58.90
28654;DHT22;24320;56.980;24.336;2023-04-25T11:23:59;20.80;58.40
28654;DHT22;24320;56.980;24.336;2023-04-25T11:26:27;20.60;58.60
28654;DHT22;24320;56.980;24.336;2023-04-25T11:28:59;20.50;59.70
28654;DHT22;24320;56.980;24.336;2023-04-25T11:31:27;20.30;61.50
28654;DHT22;24320;56.980;24.336;2023-04-25T11:33:56;20.30;59.40
28654;DHT22;24320;56.980;24.336;2023-04-25T11:36:24;20.20;56.80
28654;DHT22;24320;56.980;24.336;2023-04-25T11:38:53;20.30;57.10
28654;DHT22;24320;56.980;24.336;2023-04-25T11:41:20;20.50;58.60
28654;DHT22;24320;56.980;24.336;2023-04-25T11:43:49;20.80;57.50
28654;DHT22;24320;56.980;24.336;2023-04-25T11:46:18;21.20;57.60
28654;DHT22;24320;56.980;24.336;2023-04-25T11:48:47;21.40;57.60
28654;DHT22;24320;56.980;24.336;2023-04-25T11:51:15;21.40;60.60
28654;DHT22;24320;56.980;24.336;2023-04-25T11:53:44;21.30;60.50
28654;DHT22;24320;56.980;24.336;2023-04-25T11:56:14;21.10;58.40
28654;DHT22;24320;56.980;24.336;2023-04-25T11:59:04;21.00;60.10
28654;DHT22;24320;56.980;24.336;2023-04-25T12:01:34;20.70;60.20
28654;DHT22;24320;56.980;24.336;2023-04-25T12:04:19;20.50;61.50
28654;DHT22;24320;56.980;24.336;2023-04-25T12:06:51;20.30;64.40
28654;DHT22;24320;56.980;24.336;2023-04-25T12:09:30;20.10;65.40
28654;DHT22;24320;56.980;24.336;2023-04-25T12:11:59;19.80;68.90
28654;DHT22;24320;56.980;24.336;2023-04-25T12:14:31;19.50;73.40
28654;DHT22;24320;56.980;24.336;2023-04-25T12:17:00;19.10;75.50
28654;DHT22;24320;56.980;24.336;2023-04-25T12:19:36;18.90;75.90
28654;DHT22;24320;56.980;24.336;2023-04-25T12:22:03;18.70;78.10
28654;DHT22;24320;56.980;24.336;2023-04-25T12:24:45;18.60;75.80
28654;DHT22;24320;56.980;24.336;2023-04-25T12:27:15;18.50;73.70
28654;DHT22;24320;56.980;24.336;2023-04-25T12:29:54;18.50;70.00
28654;DHT22;24320;56.980;24.336;2023-04-25T12:32:21;18.40;73.10
28654;DHT22;24320;56.980;24.336;2023-04-25T12:34:48;18.20;73.10
28654;DHT22;24320;56.980;24.336;2023-04-25T12:37:16;18.20;70.10
28654;DHT22;24320;56.980;24.336;2023-04-25T12:39:43;18.20;67.10
28654;DHT22;24320;56.980;24.336;2023-04-25T12:42:10;18.00;69.20
28654;DHT22;24320;56.980;24.336;2023-04-25T12:44:40;17.80;67.50
28654;DHT22;24320;56.980;24.336;2023-04-25T12:47:08;17.60;67.60
28654;DHT22;24320;56.980;24.336;2023-04-25T12:49:35;17.60;69.50
28654;DHT22;24320;56.980;24.336;2023-04-25T12:52:02;17.60;67.20
28654;DHT22;24320;56.980;24.336;2023-04-25T12:54:29;17.70;64.80
28654;DHT22;24320;56.980;24.336;2023-04-25T12:56:56;17.50;70.30
28654;DHT22;24320;56.980;24.336;2023-04-25T12:59:23;17.20;73.70
28654;DHT22;24320;56.980;24.336;2023-04-25T13:01:50;17.00;70.80
28654;DHT22;24320;56.980;24.336;2023-04-25T13:04:17;16.90;76.10
28654;DHT22;24320;56.980;24.336;2023-04-25T13:06:47;16.90;73.60
28654;DHT22;24320;56.980;24.336;2023-04-25T13:09:14;17.00;77.30
28654;DHT22;24320;56.980;24.336;2023-04-25T13:11:42;17.10;74.20
28654;DHT22;24320;56.980;24.336;2023-04-25T13:14:09;17.20;73.30
28654;DHT22;24320;56.980;24.336;2023-04-25T13:16:36;17.40;79.20
28654;DHT22;24320;56.980;24.336;2023-04-25T13:19:03;17.50;74.40
28654;DHT22;24320;56.980;24.336;2023-04-25T13:21:30;17.60;74.10
28654;DHT22;24320;56.980;24.336;2023-04-25T13:24:00;17.70;73.40
28654;DHT22;24320;56.980;24.336;2023-04-25T13:26:27;17.70;73.80
28654;DHT22;24320;56.980;24.336;2023-04-25T13:28:54;17.70;73.90
28654;DHT22;24320;56.980;24.336;2023-04-25T13:31:21;17.70;74.10
28654;DHT22;24320;56.980;24.336;2023-04-25T13:33:48;17.70;73.80
28654;DHT22;24320;56.980;24.336;2023-04-25T13:36:16;17.60;76.80
28654;DHT22;24320;56.980;24.336;2023-04-25T13:38:43;17.60;80.00
28654;DHT22;24320;56.980;24.336;2023-04-25T13:41:12;17.50;78.80
28654;DHT22;24320;56.980;24.336;2023-04-25T13:43:45;17.40;80.00
28654;DHT22;24320;56.980;24.336;2023-04-25T13:46:15;17.50;79.30
28654;DHT22;24320;56.980;24.336;2023-04-25T13:49:05;17.50;80.20
28654;DHT22;24320;56.980;24.336;2023-04-25T13:51:39;17.60;79.60
28654;DHT22;24320;56.980;24.336;2023-04-25T13:54:06;17.80;77.50
28654;DHT22;24320;56.980;24.336;2023-04-25T13:56:34;18.00;79.30
28654;DHT22;24320;56.980;24.336;2023-04-25T13:59:01;18.30;78.10
28654;DHT22;24320;56.980;24.336;2023-04-25T14:01:28;18.70;76.70
28654;DHT22;24320;56.980;24.336;2023-04-25T14:03:57;18.90;73.50
28654;DHT22;24320;56.980;24.336;2023-04-25T14:06:25;19.20;71.60
28654;DHT22;24320;56.980;24.336;2023-04-25T14:08:53;19.30;70.00
28654;DHT22;24320;56.980;24.336;2023-04-25T14:11:20;19.30;70.70
28654;DHT22;24320;56.980;24.336;2023-04-25T14:13:47;19.30;70.30
28654;DHT22;24320;56.980;24.336;2023-04-25T14:16:16;19.30;68.90
28654;DHT22;24320;56.980;24.336;2023-04-25T14:18:43;19.20;70.20
28654;DHT22;24320;56.980;24.336;2023-04-25T14:21:11;19.20;71.00
28654;DHT22;24320;56.980;24.336;2023-04-25T14:23:38;19.30;69.50
28654;DHT22;24320;56.980;24.336;2023-04-25T14:26:05;19.30;69.30
28654;DHT22;24320;56.980;24.336;2023-04-25T14:28:32;19.30;71.20
28654;DHT22;24320;56.980;24.336;2023-04-25T14:30:59;19.20;73.20
28654;DHT22;24320;56.980;24.336;2023-04-25T14:33:27;18.70;80.50
28654;DHT22;24320;56.980;24.336;2023-04-25T14:35:54;18.10;83.40
28654;DHT22;24320;56.980;24.336;2023-04-25T14:38:21;17.50;85.70
28654;DHT22;24320;56.980;24.336;2023-04-25T14:43:30;16.90;90.30
28654;DHT22;24320;56.980;24.336;2023-04-25T14:45:57;16.90;88.70
28654;DHT22;24320;56.980;24.336;2023-04-25T14:48:24;16.90;90.50
28654;DHT22;24320;56.980;24.336;2023-04-25T14:50:51;16.90;90.40
28654;DHT22;24320;56.980;24.336;2023-04-25T14:53:18;17.00;88.00
28654;DHT22;24320;56.980;24.336;2023-04-25T14:55:45;16.90;88.00
28654;DHT22;24320;56.980;24.336;2023-04-25T14:58:13;16.70;89.20
28654;DHT22;24320;56.980;24.336;2023-04-25T15:00:40;16.60;90.50
28654;DHT22;24320;56.980;24.336;2023-04-25T15:03:07;16.50;92.20
28654;DHT22;24320;56.980;24.336;2023-04-25T15:05:34;16.10;92.00
28654;DHT22;24320;56.980;24.336;2023-04-25T15:08:02;15.90;93.50
28654;DHT22;24320;56.980;24.336;2023-04-25T15:10:29;15.70;96.50
28654;DHT22;24320;56.980;24.336;2023-04-25T15:13:00;15.60;97.90
28654;DHT22;24320;56.980;24.336;2023-04-25T15:15:35;15.50;99.00
28654;DHT22;24320;56.980;24.336;2023-04-25T15:18:03;15.50;99.90
28654;DHT22;24320;56.980;24.336;2023-04-25T15:20:30;15.60;99.90
28654;DHT22;24320;56.980;24.336;2023-04-25T15:22:57;15.70;99.90
28654;DHT22;24320;56.980;24.336;2023-04-25T15:25:24;15.70;99.90
28654;DHT22;24320;56.980;24.336;2023-04-25T15:27:52;15.80;99.90
28654;DHT22;24320;56.980;24.336;2023-04-25T15:30:20;15.70;99.90
28654;DHT22;24320;56.980;24.336;2023-04-25T15:32:47;15.70;99.90
28654;DHT22;24320;56.980;24.336;2023-04-25T15:35:15;15.80;99.90
28654;DHT22;24320;56.980;24.336;2023-04-25T15:37:42;15.90;99.90